createdAt,value
2022-12-23T00:01:39.377Z,19.30
2022-12-23T00:04:49.245Z,19.70
2022-12-23T00:07:55.872Z,17.80
2022-12-23T00:11:02.578Z,21.40
2022-12-23T00:14:41.335Z,23.90
2022-12-23T00:17:48.382Z,21.80
2022-12-23T00:21:08.114Z,21.90
2022-12-23T00:24:15.530Z,20.80
2022-12-23T00:27:22.151Z,19.90
2022-12-23T00:30:29.745Z,19.80
2022-12-23T00:33:38.555Z,22.10
2022-12-23T00:36:45.401Z,23.50
2022-12-23T00:40:09.415Z,21.20
2022-12-23T00:43:16.146Z,19.30
2022-12-23T00:46:26.333Z,20.90
2022-12-23T00:49:45.059Z,19.10
2022-12-23T00:52:52.018Z,19.90
2022-12-23T00:55:59.120Z,22.10
2022-12-23T00:59:06.040Z,22.80
2022-12-23T01:02:31.181Z,22.10
2022-12-23T01:05:38.611Z,21.30
2022-12-23T01:08:45.448Z,20.50
2022-12-23T01:11:52.127Z,20.00
2022-12-23T01:14:58.748Z,19.20
2022-12-23T01:18:05.533Z,23.60
2022-12-23T01:21:12.934Z,20.10
2022-12-23T01:24:19.936Z,19.40
2022-12-23T01:27:26.932Z,24.00
2022-12-23T01:30:33.897Z,20.70
2022-12-23T01:33:40.559Z,21.10
2022-12-23T01:36:47.411Z,21.00
2022-12-23T01:39:54.087Z,19.00
2022-12-23T01:43:00.839Z,21.00
2022-12-23T01:46:07.629Z,20.50
2022-12-23T01:49:14.484Z,20.70
2022-12-23T01:52:21.755Z,22.80
2022-12-23T01:55:32.296Z,22.30
2022-12-23T01:58:42.446Z,22.60
2022-12-23T02:02:06.617Z,20.90
2022-12-23T02:05:14.111Z,27.90
2022-12-23T02:08:38.892Z,24.00
2022-12-23T02:12:17.686Z,24.70
2022-12-23T02:15:52.899Z,24.60
2022-12-23T02:19:11.823Z,26.60
2022-12-23T02:22:39.113Z,25.90
2022-12-23T02:26:05.745Z,23.90
2022-12-23T02:29:51.782Z,24.00
2022-12-23T02:33:32.029Z,23.00
2022-12-23T02:36:48.264Z,28.70
2022-12-23T02:39:59.044Z,31.10
2022-12-23T02:43:13.593Z,33.30
2022-12-23T02:46:25.066Z,32.20
2022-12-23T02:49:35.338Z,31.70
2022-12-23T02:52:45.982Z,33.80
2022-12-23T02:55:56.049Z,31.50
2022-12-23T02:59:06.730Z,29.50
2022-12-23T03:02:13.774Z,33.60
2022-12-23T03:05:29.237Z,36.10
2022-12-23T03:08:44.759Z,34.90
2022-12-23T03:12:00.574Z,32.20
2022-12-23T03:15:23.225Z,30.60
2022-12-23T03:18:35.588Z,32.70
2022-12-23T03:21:47.530Z,37.00
2022-12-23T03:25:04.485Z,33.10
2022-12-23T03:28:17.262Z,32.00
2022-12-23T03:31:28.259Z,34.20
2022-12-23T03:34:38.757Z,34.80
2022-12-23T03:37:50.283Z,35.10
2022-12-23T03:41:01.186Z,34.20
2022-12-23T03:44:11.470Z,30.80
2022-12-23T03:47:24.769Z,33.30
2022-12-23T03:50:33.157Z,31.00
2022-12-23T03:53:43.328Z,29.50
2022-12-23T03:56:54.990Z,31.40
2022-12-23T04:00:01.692Z,29.90
2022-12-23T04:03:19.981Z,29.50
2022-12-23T04:06:29.254Z,29.00
2022-12-23T04:09:38.104Z,27.30
2022-12-23T04:12:45.210Z,26.60
2022-12-23T04:15:51.941Z,27.70
2022-12-23T04:18:58.761Z,24.90
2022-12-23T04:22:05.555Z,25.60
2022-12-23T04:25:13.379Z,28.60
2022-12-23T04:28:20.521Z,25.30
2022-12-23T04:31:27.286Z,24.30
2022-12-23T04:34:34.097Z,24.20
2022-12-23T04:37:41.367Z,27.00
2022-12-23T04:40:49.831Z,27.10
2022-12-23T04:43:56.462Z,24.10
2022-12-23T04:47:03.386Z,22.90
2022-12-23T04:50:16.217Z,21.70
2022-12-23T04:53:22.947Z,26.40
2022-12-23T04:56:29.760Z,25.30
2022-12-23T04:59:37.735Z,25.90
2022-12-23T05:02:44.571Z,23.10
2022-12-23T05:05:51.784Z,24.60
2022-12-23T05:09:00.978Z,23.40
2022-12-23T05:12:08.141Z,27.20
2022-12-23T05:15:16.835Z,24.50
2022-12-23T05:18:27.223Z,23.60
2022-12-23T05:21:33.974Z,25.60
2022-12-23T05:24:40.673Z,28.10
2022-12-23T05:27:47.508Z,32.90
2022-12-23T05:31:00.487Z,31.20
2022-12-23T05:34:07.260Z,26.20
2022-12-23T05:37:14.063Z,29.30
2022-12-23T05:40:24.725Z,32.80
2022-12-23T05:43:35.634Z,30.40
2022-12-23T05:46:42.340Z,33.40
2022-12-23T05:52:57.913Z,30.40
2022-12-23T05:56:08.406Z,33.20
2022-12-23T05:59:15.186Z,32.70
2022-12-23T06:02:22.433Z,36.70
2022-12-23T06:05:29.432Z,29.70
2022-12-23T06:08:36.297Z,44.40
2022-12-23T06:11:42.843Z,32.70
2022-12-23T06:14:49.601Z,35.40
2022-12-23T06:17:59.531Z,33.90
2022-12-23T06:21:06.931Z,32.80
2022-12-23T06:24:14.179Z,37.20
2022-12-23T06:27:20.937Z,37.90
2022-12-23T06:30:27.627Z,40.20
2022-12-23T06:33:34.421Z,33.60
2022-12-23T06:36:41.521Z,35.80
2022-12-23T06:39:48.135Z,38.60
2022-12-23T06:42:54.997Z,34.90
2022-12-23T06:46:01.743Z,35.40
2022-12-23T06:49:13.196Z,37.60
2022-12-23T06:52:20.647Z,27.90
2022-12-23T06:55:27.420Z,33.40
2022-12-23T06:58:34.541Z,32.90
2022-12-23T07:01:43.086Z,36.20
2022-12-23T07:04:50.179Z,35.50
2022-12-23T07:07:58.345Z,37.00
2022-12-23T07:11:06.778Z,34.90
2022-12-23T07:14:13.596Z,37.40
2022-12-23T07:17:20.851Z,48.40
2022-12-23T07:20:27.762Z,145.40
2022-12-23T07:23:34.698Z,115.10
2022-12-23T07:26:41.417Z,73.00
2022-12-23T07:29:48.022Z,62.00
2022-12-23T07:32:55.098Z,43.20
2022-12-23T07:36:01.953Z,36.40
2022-12-23T07:39:08.865Z,38.80
2022-12-23T07:42:43.388Z,35.30
2022-12-23T07:45:42.376Z,30.60
2022-12-23T07:48:49.196Z,29.40
2022-12-23T07:51:55.778Z,33.60
2022-12-23T07:55:02.628Z,37.90
2022-12-23T07:58:09.520Z,35.60
2022-12-23T08:01:16.725Z,34.50
2022-12-23T08:04:25.669Z,35.90
2022-12-23T08:07:32.341Z,35.10
2022-12-23T08:10:44.368Z,31.60
2022-12-23T08:13:54.887Z,29.10
2022-12-23T08:17:03.857Z,30.40
2022-12-23T08:20:12.753Z,28.70
2022-12-23T08:23:24.570Z,25.50
2022-12-23T08:26:32.029Z,25.20
2022-12-23T08:29:40.006Z,29.60
2022-12-23T08:32:47.772Z,28.80
2022-12-23T08:35:57.568Z,29.50
2022-12-23T08:39:08.477Z,28.40
2022-12-23T08:42:15.483Z,28.00
2022-12-23T08:45:22.360Z,27.00
2022-12-23T08:48:29.220Z,26.50
2022-12-23T08:51:36.135Z,26.50
2022-12-23T08:54:42.914Z,23.60
2022-12-23T08:57:49.967Z,27.30
2022-12-23T09:00:56.829Z,26.70
2022-12-23T09:04:08.867Z,27.00
2022-12-23T09:07:15.539Z,27.00
2022-12-23T09:10:23.362Z,22.70
2022-12-23T09:13:35.093Z,23.80
2022-12-23T09:16:42.826Z,25.30
2022-12-23T09:19:53.012Z,26.50
2022-12-23T09:23:02.358Z,26.10
2022-12-23T09:26:10.757Z,27.00
2022-12-23T09:29:17.567Z,24.60
2022-12-23T09:32:24.321Z,24.90
2022-12-23T09:35:30.964Z,22.80
2022-12-23T09:38:37.734Z,23.20
2022-12-23T09:42:01.892Z,23.90
2022-12-23T09:45:40.357Z,24.70
2022-12-23T09:48:53.389Z,27.30
2022-12-23T09:52:05.951Z,26.80
2022-12-23T09:55:15.560Z,26.40
2022-12-23T09:58:30.949Z,27.80
2022-12-23T10:01:45.777Z,25.70
2022-12-23T10:05:02.950Z,28.50
2022-12-23T10:08:18.737Z,25.80
2022-12-23T10:11:29.212Z,28.40
2022-12-23T10:14:38.349Z,28.40
2022-12-23T10:17:46.343Z,29.40
2022-12-23T10:20:58.901Z,25.20
2022-12-23T10:24:13.797Z,24.00
2022-12-23T10:27:29.402Z,25.20
2022-12-23T10:31:05.836Z,25.00
2022-12-23T10:34:21.302Z,28.60
2022-12-23T10:37:35.786Z,27.80
2022-12-23T10:40:55.705Z,24.70
2022-12-23T10:44:19.380Z,28.30
2022-12-23T10:47:42.186Z,25.30
2022-12-23T10:50:58.257Z,25.20
2022-12-23T10:54:11.395Z,26.40
2022-12-23T10:57:20.351Z,28.90
2022-12-23T11:00:28.005Z,24.40
2022-12-23T11:03:39.418Z,28.00
2022-12-23T11:07:10.644Z,27.50
2022-12-23T11:10:34.309Z,20.00
2022-12-23T11:13:42.960Z,27.70
2022-12-23T11:16:49.760Z,21.50
2022-12-23T11:20:15.784Z,23.00
2022-12-23T11:23:28.966Z,23.80
2022-12-23T11:26:36.640Z,27.90
2022-12-23T11:29:51.737Z,29.20
2022-12-23T11:32:59.793Z,27.30
2022-12-23T11:36:10.032Z,31.60
2022-12-23T11:39:27.410Z,22.90
2022-12-23T11:42:36.684Z,20.60
2022-12-23T11:45:43.650Z,21.10
2022-12-23T11:48:54.737Z,29.00
2022-12-23T11:52:14.963Z,25.70
2022-12-23T11:55:29.883Z,25.10
2022-12-23T11:58:41.667Z,26.50
2022-12-23T12:01:50.508Z,21.20
2022-12-23T12:05:00.576Z,18.80
2022-12-23T12:08:11.492Z,23.80
2022-12-23T12:11:23.318Z,24.70
2022-12-23T12:14:38.174Z,23.40
2022-12-23T12:17:52.347Z,22.10
2022-12-23T12:21:04.889Z,23.70
2022-12-23T12:24:20.729Z,30.30
2022-12-23T12:27:36.111Z,30.00
2022-12-23T12:30:50.447Z,36.10
2022-12-23T12:34:02.880Z,33.60
2022-12-23T12:37:21.268Z,32.70
2022-12-23T12:40:35.237Z,35.50
2022-12-23T12:43:47.806Z,35.50
2022-12-23T12:46:59.649Z,32.80
2022-12-23T12:50:13.961Z,34.70
2022-12-23T12:53:23.557Z,35.70
2022-12-23T12:59:41.492Z,35.90
2022-12-23T13:03:12.460Z,35.60
2022-12-23T13:06:27.558Z,28.90
2022-12-23T13:09:49.297Z,33.30
2022-12-23T13:13:05.619Z,29.60
2022-12-23T13:16:23.404Z,30.80
2022-12-23T13:19:39.693Z,32.50
2022-12-23T13:22:51.115Z,32.00
2022-12-23T13:26:03.159Z,30.70
2022-12-23T13:29:36.186Z,172.70
2022-12-23T13:33:07.395Z,41.50
2022-12-23T13:36:27.961Z,124.70
2022-12-23T13:39:46.845Z,32.80
2022-12-23T13:42:56.865Z,37.40
2022-12-23T13:46:09.691Z,32.00
2022-12-23T13:49:29.000Z,31.80
2022-12-23T13:52:51.591Z,32.70
2022-12-23T13:56:12.816Z,30.90
2022-12-23T13:59:19.836Z,29.80
2022-12-23T14:02:51.698Z,30.00
2022-12-23T14:05:58.693Z,33.40
2022-12-23T14:09:06.013Z,25.50
2022-12-23T14:12:22.249Z,23.10
2022-12-23T14:15:46.306Z,28.10
2022-12-23T14:19:15.808Z,26.40
2022-12-23T14:22:39.136Z,28.70
2022-12-23T14:26:27.828Z,28.40
2022-12-23T14:29:52.786Z,26.60
2022-12-23T14:33:01.880Z,30.10
2022-12-23T14:36:26.427Z,22.40
2022-12-23T14:39:35.166Z,25.90
2022-12-23T14:42:45.812Z,27.20
2022-12-23T14:45:54.440Z,28.30
2022-12-23T14:49:40.848Z,28.30
2022-12-23T14:53:02.342Z,31.60
2022-12-23T14:56:26.760Z,31.40
2022-12-23T14:59:41.394Z,32.20
2022-12-23T15:02:48.651Z,28.40
2022-12-23T15:06:08.029Z,30.90
2022-12-23T15:09:24.867Z,24.20
2022-12-23T15:12:36.162Z,31.70
2022-12-23T15:16:00.620Z,36.60
2022-12-23T15:19:20.903Z,35.20
2022-12-23T15:22:33.430Z,33.40
2022-12-23T15:25:48.034Z,33.40
2022-12-23T15:28:56.943Z,32.70
2022-12-23T15:32:04.711Z,30.30
2022-12-23T15:35:19.197Z,27.50
2022-12-23T15:38:30.885Z,33.30
2022-12-23T15:41:44.766Z,33.80
2022-12-23T15:44:52.524Z,32.00
2022-12-23T15:47:59.227Z,30.50
2022-12-23T15:51:12.733Z,28.90
2022-12-23T15:54:25.641Z,32.40
2022-12-23T15:57:33.144Z,29.20
2022-12-23T16:00:50.129Z,34.90
2022-12-23T16:04:01.486Z,31.40
2022-12-23T16:07:24.666Z,30.10
2022-12-23T16:10:32.212Z,27.60
2022-12-23T16:13:43.079Z,26.10
2022-12-23T16:16:59.229Z,26.90
2022-12-23T16:20:23.840Z,26.60
2022-12-23T16:23:33.982Z,31.00
2022-12-23T16:26:48.337Z,27.60
2022-12-23T16:29:55.402Z,29.50
2022-12-23T16:33:04.740Z,28.90
2022-12-23T16:36:32.891Z,27.80
2022-12-23T16:39:42.121Z,26.90
2022-12-23T16:42:54.354Z,25.30
2022-12-23T16:46:01.599Z,27.30
2022-12-23T16:49:15.398Z,31.80
2022-12-23T16:52:26.794Z,27.50
2022-12-23T16:55:33.511Z,24.40
2022-12-23T16:58:40.377Z,26.00
2022-12-23T17:01:49.500Z,24.10
2022-12-23T17:04:56.399Z,24.60
2022-12-23T17:08:04.691Z,27.00
2022-12-23T17:11:16.793Z,26.90
2022-12-23T17:14:25.688Z,28.40
2022-12-23T17:17:32.924Z,28.90
2022-12-23T17:20:39.996Z,28.50
2022-12-23T17:23:48.195Z,24.30
2022-12-23T17:26:56.913Z,21.80
2022-12-23T17:30:15.147Z,23.70
2022-12-23T17:33:22.667Z,23.70
2022-12-23T17:36:29.638Z,26.40
2022-12-23T17:39:36.473Z,25.40
2022-12-23T17:42:43.727Z,27.10
2022-12-23T17:45:50.516Z,25.90
2022-12-23T17:48:59.120Z,29.30
2022-12-23T17:52:12.607Z,29.30
2022-12-23T17:55:22.677Z,26.00
2022-12-23T17:58:29.549Z,28.90
2022-12-23T18:01:36.528Z,29.00
2022-12-23T18:04:43.315Z,30.10
2022-12-23T18:07:50.323Z,28.50
2022-12-23T18:10:58.396Z,28.30
2022-12-23T18:14:06.109Z,29.80
2022-12-23T18:17:17.117Z,33.00
2022-12-23T18:20:26.083Z,30.00
2022-12-23T18:23:34.364Z,30.10
2022-12-23T18:26:41.094Z,28.10
2022-12-23T18:29:48.734Z,28.40
2022-12-23T18:32:55.399Z,31.60
2022-12-23T18:36:02.094Z,26.80
2022-12-23T18:39:08.900Z,34.00
2022-12-23T18:42:17.257Z,29.60
2022-12-23T18:45:29.917Z,33.80
2022-12-23T18:48:36.630Z,31.80
2022-12-23T18:51:45.408Z,29.80
2022-12-23T18:54:53.445Z,29.20
2022-12-23T18:58:01.526Z,35.50
2022-12-23T19:01:11.209Z,37.10
2022-12-23T19:07:25.093Z,30.20
2022-12-23T19:10:34.022Z,27.60
2022-12-23T19:13:41.052Z,33.10
2022-12-23T19:16:51.912Z,41.10
2022-12-23T19:19:59.540Z,49.50
2022-12-23T19:23:06.696Z,45.40
2022-12-23T19:26:15.824Z,43.20
2022-12-23T19:29:22.939Z,44.30
2022-12-23T19:32:29.595Z,50.20
2022-12-23T19:35:36.669Z,46.60
2022-12-23T19:38:46.602Z,51.80
2022-12-23T19:41:53.242Z,52.70
2022-12-23T19:44:59.974Z,49.50
2022-12-23T19:48:08.251Z,53.20
2022-12-23T19:51:15.925Z,52.20
2022-12-23T19:54:22.910Z,47.30
2022-12-23T19:57:29.760Z,45.00
2022-12-23T20:00:36.513Z,59.60
2022-12-23T20:03:45.321Z,52.70
2022-12-23T20:06:52.615Z,53.90
2022-12-23T20:09:59.279Z,63.40
2022-12-23T20:13:08.073Z,65.20
2022-12-23T20:16:16.127Z,58.10
2022-12-23T20:19:22.768Z,57.50
2022-12-23T20:22:29.517Z,58.90
2022-12-23T20:25:36.079Z,67.40
2022-12-23T20:28:43.056Z,68.60
2022-12-23T20:31:49.775Z,70.30
2022-12-23T20:34:56.441Z,66.60
2022-12-23T20:38:03.268Z,73.50
2022-12-23T20:41:12.083Z,69.70
2022-12-23T20:44:36.882Z,60.00
2022-12-23T20:47:43.877Z,71.30
2022-12-23T20:50:50.830Z,73.60
2022-12-23T20:54:01.020Z,78.30
2022-12-23T20:57:07.872Z,79.70
2022-12-23T21:00:16.785Z,77.80
2022-12-23T21:03:23.678Z,99.10
2022-12-23T21:06:31.458Z,84.90
2022-12-23T21:09:38.332Z,86.50
2022-12-23T21:12:45.058Z,90.80
2022-12-23T21:15:51.816Z,80.50
2022-12-23T21:18:59.368Z,91.90
2022-12-23T21:22:06.145Z,82.70
2022-12-23T21:25:13.306Z,93.00
2022-12-23T21:28:20.004Z,96.00
2022-12-23T21:31:27.429Z,103.20
2022-12-23T21:34:34.209Z,99.10
2022-12-23T21:37:40.922Z,85.50
2022-12-23T21:40:47.518Z,77.50
2022-12-23T21:43:54.633Z,76.60
2022-12-23T21:47:01.304Z,80.10
2022-12-23T21:50:10.403Z,71.50
2022-12-23T21:53:17.080Z,70.90
2022-12-23T21:56:26.116Z,66.50
2022-12-23T21:59:35.182Z,71.00
2022-12-23T22:02:42.598Z,65.70
2022-12-23T22:05:49.377Z,57.80
2022-12-23T22:08:58.590Z,63.80
2022-12-23T22:12:05.444Z,66.90
2022-12-23T22:15:13.028Z,61.70
2022-12-23T22:18:19.734Z,62.50
2022-12-23T22:21:29.083Z,64.10
2022-12-23T22:24:35.896Z,57.50
2022-12-23T22:27:42.596Z,69.10
2022-12-23T22:30:49.376Z,63.80
2022-12-23T22:33:56.203Z,64.40
2022-12-23T22:37:02.803Z,59.40
2022-12-23T22:40:11.349Z,59.80
2022-12-23T22:43:18.185Z,58.10
2022-12-23T22:46:25.601Z,61.50
2022-12-23T22:49:32.443Z,60.80
2022-12-23T22:52:39.436Z,53.50
2022-12-23T22:55:46.127Z,55.10
2022-12-23T22:58:54.079Z,50.50
2022-12-23T23:02:01.179Z,49.50
2022-12-23T23:05:12.905Z,51.30
2022-12-23T23:08:20.210Z,53.20
2022-12-23T23:11:28.411Z,46.30
2022-12-23T23:14:52.424Z,48.00
2022-12-23T23:17:59.612Z,51.80
2022-12-23T23:21:06.673Z,48.10
2022-12-23T23:24:13.463Z,44.90
2022-12-23T23:27:20.394Z,42.90
2022-12-23T23:30:27.155Z,45.90
2022-12-23T23:33:34.061Z,40.80
2022-12-23T23:36:40.956Z,46.20
2022-12-23T23:39:47.803Z,38.50
2022-12-23T23:42:54.877Z,40.00
2022-12-23T23:46:01.696Z,38.70
2022-12-23T23:49:08.474Z,35.60
2022-12-23T23:52:15.229Z,38.70
2022-12-23T23:55:21.912Z,41.20
2022-12-23T23:58:28.643Z,42.10
